sensor_id;sensor_type;location;lat;lon;timestamp;P1;durP1;ratioP1;P2;durP2;ratioP2
22476;SDS011;11405;51.698;-0.292;2022-09-06T00:00:09;11.05;;;5.00;;
22476;SDS011;11405;51.698;-0.292;2022-09-06T00:02:35;13.93;;;5.22;;
22476;SDS011;11405;51.698;-0.292;2022-09-06T00:05:02;10.30;;;4.97;;
22476;SDS011;11405;51.698;-0.292;2022-09-06T00:07:28;9.68;;;5.05;;
22476;SDS011;11405;51.698;-0.292;2022-09-06T00:12:23;12.15;;;5.55;;
22476;SDS011;11405;51.698;-0.292;2022-09-06T00:14:49;9.10;;;4.68;;
22476;SDS011;11405;51.698;-0.292;2022-09-06T00:17:15;10.48;;;5.07;;
22476;SDS011;11405;51.698;-0.292;2022-09-06T00:19:41;12.95;;;5.25;;
22476;SDS011;11405;51.698;-0.292;2022-09-06T00:22:08;9.63;;;5.55;;
22476;SDS011;11405;51.698;-0.292;2022-09-06T00:24:34;10.57;;;5.20;;
22476;SDS011;11405;51.698;-0.292;2022-09-06T00:27:03;12.52;;;6.00;;
22476;SDS011;11405;51.698;-0.292;2022-09-06T00:31:55;17.58;;;6.85;;
22476;SDS011;11405;51.698;-0.292;2022-09-06T00:34:21;16.90;;;7.70;;
22476;SDS011;11405;51.698;-0.292;2022-09-06T00:36:47;13.60;;;7.97;;
22476;SDS011;11405;51.698;-0.292;2022-09-06T00:39:13;17.95;;;9.20;;
22476;SDS011;11405;51.698;-0.292;2022-09-06T00:41:39;19.13;;;9.10;;
22476;SDS011;11405;51.698;-0.292;2022-09-06T00:44:05;18.33;;;8.98;;
22476;SDS011;11405;51.698;-0.292;2022-09-06T00:46:31;20.03;;;8.97;;
22476;SDS011;11405;51.698;-0.292;2022-09-06T00:49:02;26.38;;;11.23;;
22476;SDS011;11405;51.698;-0.292;2022-09-06T00:51:30;18.42;;;9.63;;
22476;SDS011;11405;51.698;-0.292;2022-09-06T00:53:58;18.25;;;9.70;;
22476;SDS011;11405;51.698;-0.292;2022-09-06T00:56:26;21.52;;;10.10;;
22476;SDS011;11405;51.698;-0.292;2022-09-06T00:58:55;19.58;;;10.43;;
22476;SDS011;11405;51.698;-0.292;2022-09-06T01:01:21;17.30;;;9.88;;
22476;SDS011;11405;51.698;-0.292;2022-09-06T01:03:47;18.33;;;9.95;;
22476;SDS011;11405;51.698;-0.292;2022-09-06T01:06:17;20.15;;;10.02;;
22476;SDS011;11405;51.698;-0.292;2022-09-06T01:14:09;16.92;;;8.50;;
22476;SDS011;11405;51.698;-0.292;2022-09-06T01:16:41;15.45;;;7.70;;
22476;SDS011;11405;51.698;-0.292;2022-09-06T01:22:05;13.35;;;6.50;;
22476;SDS011;11405;51.698;-0.292;2022-09-06T01:29:49;10.77;;;4.20;;
22476;SDS011;11405;51.698;-0.292;2022-09-06T01:32:37;5.57;;;3.58;;
22476;SDS011;11405;51.698;-0.292;2022-09-06T01:35:17;4.70;;;3.50;;
22476;SDS011;11405;51.698;-0.292;2022-09-06T01:37:46;6.60;;;3.55;;
22476;SDS011;11405;51.698;-0.292;2022-09-06T01:40:13;6.03;;;2.80;;
22476;SDS011;11405;51.698;-0.292;2022-09-06T01:42:39;7.85;;;3.15;;
22476;SDS011;11405;51.698;-0.292;2022-09-06T01:45:15;7.55;;;2.95;;
22476;SDS011;11405;51.698;-0.292;2022-09-06T02:00:53;8.30;;;3.47;;
22476;SDS011;11405;51.698;-0.292;2022-09-06T02:05:53;8.05;;;3.97;;
22476;SDS011;11405;51.698;-0.292;2022-09-06T02:11:05;6.45;;;3.13;;
22476;SDS011;11405;51.698;-0.292;2022-09-06T02:13:35;8.35;;;3.83;;
22476;SDS011;11405;51.698;-0.292;2022-09-06T02:16:03;9.45;;;4.07;;
22476;SDS011;11405;51.698;-0.292;2022-09-06T02:18:37;6.32;;;4.00;;
22476;SDS011;11405;51.698;-0.292;2022-09-06T02:21:05;6.05;;;3.97;;
22476;SDS011;11405;51.698;-0.292;2022-09-06T02:23:32;7.97;;;4.55;;
22476;SDS011;11405;51.698;-0.292;2022-09-06T02:26:08;9.93;;;5.00;;
22476;SDS011;11405;51.698;-0.292;2022-09-06T02:28:34;10.32;;;5.35;;
22476;SDS011;11405;51.698;-0.292;2022-09-06T02:31:01;9.18;;;5.60;;
22476;SDS011;11405;51.698;-0.292;2022-09-06T02:33:31;13.38;;;4.93;;
22476;SDS011;11405;51.698;-0.292;2022-09-06T02:36:01;6.78;;;4.55;;
22476;SDS011;11405;51.698;-0.292;2022-09-06T02:38:28;9.48;;;5.10;;
22476;SDS011;11405;51.698;-0.292;2022-09-06T02:40:54;13.93;;;5.72;;
22476;SDS011;11405;51.698;-0.292;2022-09-06T02:43:20;10.13;;;5.70;;
22476;SDS011;11405;51.698;-0.292;2022-09-06T02:45:46;10.88;;;5.55;;
22476;SDS011;11405;51.698;-0.292;2022-09-06T02:48:12;7.72;;;4.93;;
22476;SDS011;11405;51.698;-0.292;2022-09-06T02:50:38;11.68;;;5.43;;
22476;SDS011;11405;51.698;-0.292;2022-09-06T02:53:08;9.18;;;5.10;;
22476;SDS011;11405;51.698;-0.292;2022-09-06T02:55:35;11.02;;;6.18;;
22476;SDS011;11405;51.698;-0.292;2022-09-06T02:58:01;11.93;;;5.38;;
22476;SDS011;11405;51.698;-0.292;2022-09-06T03:00:27;12.65;;;5.35;;
22476;SDS011;11405;51.698;-0.292;2022-09-06T03:02:54;6.15;;;4.78;;
22476;SDS011;11405;51.698;-0.292;2022-09-06T03:05:26;8.13;;;4.22;;
22476;SDS011;11405;51.698;-0.292;2022-09-06T03:07:53;8.77;;;5.00;;
22476;SDS011;11405;51.698;-0.292;2022-09-06T03:12:45;12.88;;;4.88;;
22476;SDS011;11405;51.698;-0.292;2022-09-06T03:15:12;9.53;;;5.37;;
22476;SDS011;11405;51.698;-0.292;2022-09-06T03:17:39;9.15;;;4.47;;
22476;SDS011;11405;51.698;-0.292;2022-09-06T03:20:05;8.20;;;5.60;;
22476;SDS011;11405;51.698;-0.292;2022-09-06T03:22:33;10.48;;;6.10;;
22476;SDS011;11405;51.698;-0.292;2022-09-06T03:24:59;11.05;;;5.68;;
22476;SDS011;11405;51.698;-0.292;2022-09-06T03:27:25;12.15;;;6.63;;
22476;SDS011;11405;51.698;-0.292;2022-09-06T03:29:51;14.00;;;7.20;;
22476;SDS011;11405;51.698;-0.292;2022-09-06T03:32:17;10.73;;;6.15;;
22476;SDS011;11405;51.698;-0.292;2022-09-06T03:34:43;8.45;;;5.90;;
22476;SDS011;11405;51.698;-0.292;2022-09-06T03:37:09;10.07;;;6.40;;
22476;SDS011;11405;51.698;-0.292;2022-09-06T03:39:35;11.57;;;6.00;;
22476;SDS011;11405;51.698;-0.292;2022-09-06T03:42:01;10.43;;;5.57;;
22476;SDS011;11405;51.698;-0.292;2022-09-06T03:44:27;12.85;;;6.00;;
22476;SDS011;11405;51.698;-0.292;2022-09-06T03:46:53;13.32;;;5.65;;
22476;SDS011;11405;51.698;-0.292;2022-09-06T03:49:19;12.27;;;6.25;;
22476;SDS011;11405;51.698;-0.292;2022-09-06T03:51:45;11.63;;;6.10;;
22476;SDS011;11405;51.698;-0.292;2022-09-06T03:54:11;9.35;;;5.93;;
22476;SDS011;11405;51.698;-0.292;2022-09-06T03:56:37;14.23;;;6.13;;
22476;SDS011;11405;51.698;-0.292;2022-09-06T03:59:03;12.60;;;6.13;;
22476;SDS011;11405;51.698;-0.292;2022-09-06T04:01:29;11.73;;;6.18;;
22476;SDS011;11405;51.698;-0.292;2022-09-06T04:03:55;15.18;;;7.00;;
22476;SDS011;11405;51.698;-0.292;2022-09-06T04:06:21;17.10;;;6.88;;
22476;SDS011;11405;51.698;-0.292;2022-09-06T04:08:47;19.08;;;6.70;;
22476;SDS011;11405;51.698;-0.292;2022-09-06T04:11:13;17.55;;;7.25;;
22476;SDS011;11405;51.698;-0.292;2022-09-06T04:13:39;19.80;;;7.45;;
22476;SDS011;11405;51.698;-0.292;2022-09-06T04:16:05;16.27;;;7.18;;
22476;SDS011;11405;51.698;-0.292;2022-09-06T04:18:31;9.95;;;6.97;;
22476;SDS011;11405;51.698;-0.292;2022-09-06T04:20:57;18.30;;;7.93;;
22476;SDS011;11405;51.698;-0.292;2022-09-06T04:23:24;17.00;;;7.95;;
22476;SDS011;11405;51.698;-0.292;2022-09-06T04:25:52;14.40;;;8.27;;
22476;SDS011;11405;51.698;-0.292;2022-09-06T04:28:19;16.60;;;7.35;;
22476;SDS011;11405;51.698;-0.292;2022-09-06T04:33:11;15.60;;;8.15;;
22476;SDS011;11405;51.698;-0.292;2022-09-06T04:35:37;16.20;;;8.43;;
22476;SDS011;11405;51.698;-0.292;2022-09-06T04:38:03;18.90;;;8.50;;
22476;SDS011;11405;51.698;-0.292;2022-09-06T04:40:29;16.73;;;9.68;;
22476;SDS011;11405;51.698;-0.292;2022-09-06T04:42:55;19.77;;;8.38;;
22476;SDS011;11405;51.698;-0.292;2022-09-06T04:45:21;17.40;;;9.27;;
22476;SDS011;11405;51.698;-0.292;2022-09-06T04:47:48;21.38;;;8.40;;
22476;SDS011;11405;51.698;-0.292;2022-09-06T04:52:41;21.73;;;9.20;;
22476;SDS011;11405;51.698;-0.292;2022-09-06T04:55:07;21.80;;;8.57;;
22476;SDS011;11405;51.698;-0.292;2022-09-06T04:57:33;15.77;;;9.55;;
22476;SDS011;11405;51.698;-0.292;2022-09-06T04:59:59;20.27;;;9.65;;
22476;SDS011;11405;51.698;-0.292;2022-09-06T05:02:25;19.10;;;9.05;;
22476;SDS011;11405;51.698;-0.292;2022-09-06T05:04:51;20.92;;;9.60;;
22476;SDS011;11405;51.698;-0.292;2022-09-06T05:07:18;19.45;;;8.82;;
22476;SDS011;11405;51.698;-0.292;2022-09-06T05:09:44;18.50;;;9.60;;
22476;SDS011;11405;51.698;-0.292;2022-09-06T05:12:10;21.08;;;8.90;;
22476;SDS011;11405;51.698;-0.292;2022-09-06T05:14:36;17.30;;;8.65;;
22476;SDS011;11405;51.698;-0.292;2022-09-06T05:17:02;18.23;;;9.27;;
22476;SDS011;11405;51.698;-0.292;2022-09-06T05:19:28;25.85;;;9.35;;
22476;SDS011;11405;51.698;-0.292;2022-09-06T05:21:54;18.08;;;9.10;;
22476;SDS011;11405;51.698;-0.292;2022-09-06T05:24:20;17.40;;;9.57;;
22476;SDS011;11405;51.698;-0.292;2022-09-06T05:26:46;17.67;;;9.00;;
22476;SDS011;11405;51.698;-0.292;2022-09-06T05:29:12;17.02;;;9.35;;
22476;SDS011;11405;51.698;-0.292;2022-09-06T05:31:38;18.77;;;10.13;;
22476;SDS011;11405;51.698;-0.292;2022-09-06T05:34:04;22.15;;;9.52;;
22476;SDS011;11405;51.698;-0.292;2022-09-06T05:36:31;19.00;;;9.52;;
22476;SDS011;11405;51.698;-0.292;2022-09-06T05:38:57;20.48;;;9.07;;
22476;SDS011;11405;51.698;-0.292;2022-09-06T05:41:24;23.95;;;10.18;;
22476;SDS011;11405;51.698;-0.292;2022-09-06T05:43:51;22.42;;;9.55;;
22476;SDS011;11405;51.698;-0.292;2022-09-06T05:46:17;22.55;;;10.18;;
22476;SDS011;11405;51.698;-0.292;2022-09-06T05:48:43;17.38;;;9.82;;
22476;SDS011;11405;51.698;-0.292;2022-09-06T05:51:15;17.40;;;8.00;;
22476;SDS011;11405;51.698;-0.292;2022-09-06T05:53:42;17.40;;;8.88;;
22476;SDS011;11405;51.698;-0.292;2022-09-06T05:56:09;17.60;;;8.68;;
22476;SDS011;11405;51.698;-0.292;2022-09-06T06:01:03;16.20;;;7.93;;
22476;SDS011;11405;51.698;-0.292;2022-09-06T06:05:55;19.45;;;7.43;;
22476;SDS011;11405;51.698;-0.292;2022-09-06T06:08:21;15.73;;;7.57;;
22476;SDS011;11405;51.698;-0.292;2022-09-06T06:10:47;16.02;;;7.97;;
22476;SDS011;11405;51.698;-0.292;2022-09-06T06:13:13;11.52;;;6.70;;
22476;SDS011;11405;51.698;-0.292;2022-09-06T06:15:39;12.88;;;7.10;;
22476;SDS011;11405;51.698;-0.292;2022-09-06T06:18:05;13.63;;;6.80;;
22476;SDS011;11405;51.698;-0.292;2022-09-06T06:20:31;18.17;;;6.47;;
22476;SDS011;11405;51.698;-0.292;2022-09-06T06:22:57;15.85;;;6.20;;
22476;SDS011;11405;51.698;-0.292;2022-09-06T06:25:23;15.23;;;6.35;;
22476;SDS011;11405;51.698;-0.292;2022-09-06T06:27:50;19.90;;;7.72;;
22476;SDS011;11405;51.698;-0.292;2022-09-06T06:30:16;16.60;;;7.85;;
22476;SDS011;11405;51.698;-0.292;2022-09-06T06:32:42;16.80;;;7.47;;
22476;SDS011;11405;51.698;-0.292;2022-09-06T06:35:08;16.07;;;7.23;;
22476;SDS011;11405;51.698;-0.292;2022-09-06T06:37:34;19.98;;;6.70;;
22476;SDS011;11405;51.698;-0.292;2022-09-06T06:40:00;18.10;;;6.40;;
22476;SDS011;11405;51.698;-0.292;2022-09-06T06:42:27;17.52;;;6.85;;
22476;SDS011;11405;51.698;-0.292;2022-09-06T06:44:53;13.75;;;6.25;;
22476;SDS011;11405;51.698;-0.292;2022-09-06T06:47:19;21.05;;;6.68;;
22476;SDS011;11405;51.698;-0.292;2022-09-06T06:49:45;16.98;;;6.75;;
22476;SDS011;11405;51.698;-0.292;2022-09-06T06:52:12;14.73;;;5.90;;
22476;SDS011;11405;51.698;-0.292;2022-09-06T06:54:38;13.65;;;5.78;;
22476;SDS011;11405;51.698;-0.292;2022-09-06T07:01:59;9.50;;;5.63;;
22476;SDS011;11405;51.698;-0.292;2022-09-06T07:04:25;12.45;;;6.32;;
22476;SDS011;11405;51.698;-0.292;2022-09-06T07:06:54;12.32;;;5.80;;
22476;SDS011;11405;51.698;-0.292;2022-09-06T07:09:21;14.82;;;6.78;;
22476;SDS011;11405;51.698;-0.292;2022-09-06T07:11:47;11.82;;;5.80;;
22476;SDS011;11405;51.698;-0.292;2022-09-06T07:14:14;11.52;;;6.10;;
22476;SDS011;11405;51.698;-0.292;2022-09-06T07:16:40;12.65;;;6.30;;
22476;SDS011;11405;51.698;-0.292;2022-09-06T07:19:06;15.65;;;6.70;;
22476;SDS011;11405;51.698;-0.292;2022-09-06T07:21:32;10.02;;;6.38;;
22476;SDS011;11405;51.698;-0.292;2022-09-06T07:23:59;14.13;;;6.53;;
22476;SDS011;11405;51.698;-0.292;2022-09-06T07:26:28;12.25;;;6.35;;
22476;SDS011;11405;51.698;-0.292;2022-09-06T07:28:57;13.45;;;7.00;;
22476;SDS011;11405;51.698;-0.292;2022-09-06T07:31:23;15.63;;;7.97;;
22476;SDS011;11405;51.698;-0.292;2022-09-06T07:33:49;20.08;;;8.27;;
22476;SDS011;11405;51.698;-0.292;2022-09-06T07:36:15;14.20;;;7.13;;
22476;SDS011;11405;51.698;-0.292;2022-09-06T07:38:41;20.65;;;9.02;;
22476;SDS011;11405;51.698;-0.292;2022-09-06T07:41:08;19.17;;;8.48;;
22476;SDS011;11405;51.698;-0.292;2022-09-06T07:43:35;20.98;;;8.98;;
22476;SDS011;11405;51.698;-0.292;2022-09-06T07:48:31;21.10;;;9.13;;
22476;SDS011;11405;51.698;-0.292;2022-09-06T07:51:17;17.02;;;8.88;;
22476;SDS011;11405;51.698;-0.292;2022-09-06T07:53:44;27.58;;;8.95;;
22476;SDS011;11405;51.698;-0.292;2022-09-06T07:56:14;16.02;;;9.32;;
22476;SDS011;11405;51.698;-0.292;2022-09-06T07:58:40;14.77;;;8.68;;
22476;SDS011;11405;51.698;-0.292;2022-09-06T08:01:16;21.05;;;9.18;;
22476;SDS011;11405;51.698;-0.292;2022-09-06T08:03:43;18.30;;;8.05;;
22476;SDS011;11405;51.698;-0.292;2022-09-06T08:06:09;15.05;;;6.70;;
22476;SDS011;11405;51.698;-0.292;2022-09-06T08:08:36;14.30;;;7.65;;
22476;SDS011;11405;51.698;-0.292;2022-09-06T08:11:02;14.55;;;6.25;;
22476;SDS011;11405;51.698;-0.292;2022-09-06T08:13:30;12.15;;;5.88;;
22476;SDS011;11405;51.698;-0.292;2022-09-06T08:15:59;12.48;;;5.13;;
22476;SDS011;11405;51.698;-0.292;2022-09-06T08:18:26;12.48;;;4.60;;
22476;SDS011;11405;51.698;-0.292;2022-09-06T08:20:52;13.27;;;3.85;;
22476;SDS011;11405;51.698;-0.292;2022-09-06T08:23:18;9.55;;;4.47;;
22476;SDS011;11405;51.698;-0.292;2022-09-06T08:25:54;10.05;;;2.92;;
22476;SDS011;11405;51.698;-0.292;2022-09-06T08:28:22;6.33;;;2.57;;
22476;SDS011;11405;51.698;-0.292;2022-09-06T08:30:48;9.77;;;2.90;;
22476;SDS011;11405;51.698;-0.292;2022-09-06T08:33:14;11.23;;;3.55;;
22476;SDS011;11405;51.698;-0.292;2022-09-06T08:35:41;3.95;;;2.08;;
22476;SDS011;11405;51.698;-0.292;2022-09-06T08:38:07;13.32;;;3.90;;
22476;SDS011;11405;51.698;-0.292;2022-09-06T08:40:33;6.35;;;2.70;;
22476;SDS011;11405;51.698;-0.292;2022-09-06T08:42:59;10.35;;;2.35;;
22476;SDS011;11405;51.698;-0.292;2022-09-06T08:45:25;7.28;;;1.80;;
22476;SDS011;11405;51.698;-0.292;2022-09-06T08:47:58;7.55;;;1.83;;
22476;SDS011;11405;51.698;-0.292;2022-09-06T08:50:25;7.45;;;2.13;;
22476;SDS011;11405;51.698;-0.292;2022-09-06T09:00:23;7.10;;;2.05;;
22476;SDS011;11405;51.698;-0.292;2022-09-06T09:05:35;8.43;;;2.47;;
22476;SDS011;11405;51.698;-0.292;2022-09-06T09:08:12;11.43;;;2.53;;
22476;SDS011;11405;51.698;-0.292;2022-09-06T09:10:46;11.43;;;2.15;;
22476;SDS011;11405;51.698;-0.292;2022-09-06T09:15:45;8.55;;;1.38;;
22476;SDS011;11405;51.698;-0.292;2022-09-06T09:18:11;8.07;;;1.75;;
22476;SDS011;11405;51.698;-0.292;2022-09-06T09:20:38;3.78;;;1.23;;
22476;SDS011;11405;51.698;-0.292;2022-09-06T09:23:04;6.35;;;1.23;;
22476;SDS011;11405;51.698;-0.292;2022-09-06T09:25:31;5.60;;;1.40;;
22476;SDS011;11405;51.698;-0.292;2022-09-06T09:27:57;8.13;;;1.45;;
22476;SDS011;11405;51.698;-0.292;2022-09-06T09:30:24;10.75;;;1.58;;
22476;SDS011;11405;51.698;-0.292;2022-09-06T09:35:39;9.40;;;1.13;;
22476;SDS011;11405;51.698;-0.292;2022-09-06T09:38:09;8.32;;;1.38;;
22476;SDS011;11405;51.698;-0.292;2022-09-06T09:43:18;7.75;;;1.30;;
22476;SDS011;11405;51.698;-0.292;2022-09-06T09:45:45;5.63;;;1.02;;
22476;SDS011;11405;51.698;-0.292;2022-09-06T09:50:37;4.15;;;1.35;;
22476;SDS011;11405;51.698;-0.292;2022-09-06T09:53:08;7.32;;;1.05;;
22476;SDS011;11405;51.698;-0.292;2022-09-06T09:55:34;6.03;;;1.27;;
22476;SDS011;11405;51.698;-0.292;2022-09-06T09:58:00;11.07;;;1.42;;
22476;SDS011;11405;51.698;-0.292;2022-09-06T10:00:37;3.95;;;0.80;;
22476;SDS011;11405;51.698;-0.292;2022-09-06T10:03:25;10.75;;;1.58;;
22476;SDS011;11405;51.698;-0.292;2022-09-06T10:05:54;14.97;;;1.67;;
22476;SDS011;11405;51.698;-0.292;2022-09-06T10:08:22;9.57;;;1.50;;
22476;SDS011;11405;51.698;-0.292;2022-09-06T10:10:48;4.72;;;0.88;;
22476;SDS011;11405;51.698;-0.292;2022-09-06T10:15:40;7.60;;;1.52;;
22476;SDS011;11405;51.698;-0.292;2022-09-06T10:20:52;11.38;;;0.98;;
22476;SDS011;11405;51.698;-0.292;2022-09-06T10:23:36;7.97;;;1.40;;
22476;SDS011;11405;51.698;-0.292;2022-09-06T10:26:48;2.33;;;0.75;;
22476;SDS011;11405;51.698;-0.292;2022-09-06T10:29:03;6.90;;;1.40;;
22476;SDS011;11405;51.698;-0.292;2022-09-06T10:36:37;6.47;;;1.85;;
22476;SDS011;11405;51.698;-0.292;2022-09-06T10:39:28;7.10;;;1.13;;
22476;SDS011;11405;51.698;-0.292;2022-09-06T10:44:41;10.25;;;1.67;;
22476;SDS011;11405;51.698;-0.292;2022-09-06T10:47:10;6.60;;;1.02;;
22476;SDS011;11405;51.698;-0.292;2022-09-06T10:49:37;7.47;;;1.00;;
22476;SDS011;11405;51.698;-0.292;2022-09-06T10:52:06;4.75;;;1.33;;
22476;SDS011;11405;51.698;-0.292;2022-09-06T10:54:33;8.77;;;1.40;;
22476;SDS011;11405;51.698;-0.292;2022-09-06T10:57:48;10.20;;;1.10;;
22476;SDS011;11405;51.698;-0.292;2022-09-06T11:02:25;5.68;;;0.88;;
22476;SDS011;11405;51.698;-0.292;2022-09-06T11:04:57;5.50;;;0.88;;
22476;SDS011;11405;51.698;-0.292;2022-09-06T11:07:31;13.98;;;1.40;;
22476;SDS011;11405;51.698;-0.292;2022-09-06T11:12:49;8.88;;;1.25;;
22476;SDS011;11405;51.698;-0.292;2022-09-06T11:15:17;1.98;;;1.13;;
22476;SDS011;11405;51.698;-0.292;2022-09-06T11:27:40;4.15;;;1.02;;
22476;SDS011;11405;51.698;-0.292;2022-09-06T11:30:13;7.18;;;1.15;;
22476;SDS011;11405;51.698;-0.292;2022-09-06T11:32:41;6.90;;;1.10;;
22476;SDS011;11405;51.698;-0.292;2022-09-06T11:35:19;6.10;;;0.93;;
22476;SDS011;11405;51.698;-0.292;2022-09-06T11:37:46;7.97;;;0.95;;
22476;SDS011;11405;51.698;-0.292;2022-09-06T11:40:19;5.40;;;1.20;;
22476;SDS011;11405;51.698;-0.292;2022-09-06T11:47:48;8.52;;;0.90;;
22476;SDS011;11405;51.698;-0.292;2022-09-06T11:55:15;7.00;;;0.95;;
22476;SDS011;11405;51.698;-0.292;2022-09-06T11:57:43;4.78;;;0.85;;
22476;SDS011;11405;51.698;-0.292;2022-09-06T12:00:16;8.27;;;0.68;;
22476;SDS011;11405;51.698;-0.292;2022-09-06T12:02:43;2.50;;;0.73;;
22476;SDS011;11405;51.698;-0.292;2022-09-06T12:05:11;4.82;;;0.93;;
22476;SDS011;11405;51.698;-0.292;2022-09-06T12:08:10;2.97;;;0.80;;
22476;SDS011;11405;51.698;-0.292;2022-09-06T12:12:56;5.82;;;0.88;;
22476;SDS011;11405;51.698;-0.292;2022-09-06T12:17:48;4.43;;;0.90;;
22476;SDS011;11405;51.698;-0.292;2022-09-06T12:22:59;4.95;;;0.90;;
22476;SDS011;11405;51.698;-0.292;2022-09-06T12:28:01;3.33;;;1.05;;
22476;SDS011;11405;51.698;-0.292;2022-09-06T12:30:41;7.28;;;1.10;;
22476;SDS011;11405;51.698;-0.292;2022-09-06T12:33:29;9.35;;;1.00;;
22476;SDS011;11405;51.698;-0.292;2022-09-06T12:36:16;7.78;;;1.20;;
22476;SDS011;11405;51.698;-0.292;2022-09-06T12:41:28;11.38;;;1.63;;
22476;SDS011;11405;51.698;-0.292;2022-09-06T12:43:57;5.35;;;1.08;;
22476;SDS011;11405;51.698;-0.292;2022-09-06T12:46:23;6.45;;;0.90;;
22476;SDS011;11405;51.698;-0.292;2022-09-06T12:49:04;11.40;;;0.90;;
22476;SDS011;11405;51.698;-0.292;2022-09-06T12:51:30;3.88;;;1.00;;
22476;SDS011;11405;51.698;-0.292;2022-09-06T12:54:16;5.88;;;1.10;;
22476;SDS011;11405;51.698;-0.292;2022-09-06T12:56:42;4.95;;;1.02;;
22476;SDS011;11405;51.698;-0.292;2022-09-06T12:59:09;4.07;;;1.05;;
22476;SDS011;11405;51.698;-0.292;2022-09-06T13:01:36;4.57;;;0.85;;
22476;SDS011;11405;51.698;-0.292;2022-09-06T13:06:29;6.50;;;1.50;;
22476;SDS011;11405;51.698;-0.292;2022-09-06T13:08:58;4.72;;;1.15;;
22476;SDS011;11405;51.698;-0.292;2022-09-06T13:11:25;5.10;;;1.13;;
22476;SDS011;11405;51.698;-0.292;2022-09-06T13:13:53;6.75;;;1.38;;
22476;SDS011;11405;51.698;-0.292;2022-09-06T13:18:45;6.50;;;1.23;;
22476;SDS011;11405;51.698;-0.292;2022-09-06T13:21:22;5.97;;;1.02;;
22476;SDS011;11405;51.698;-0.292;2022-09-06T13:23:48;6.10;;;1.05;;
22476;SDS011;11405;51.698;-0.292;2022-09-06T13:26:30;8.68;;;1.15;;
22476;SDS011;11405;51.698;-0.292;2022-09-06T13:28:56;5.93;;;1.10;;
22476;SDS011;11405;51.698;-0.292;2022-09-06T13:31:22;8.15;;;1.33;;
22476;SDS011;11405;51.698;-0.292;2022-09-06T13:33:56;8.35;;;1.17;;
22476;SDS011;11405;51.698;-0.292;2022-09-06T13:36:23;6.80;;;1.13;;
22476;SDS011;11405;51.698;-0.292;2022-09-06T13:38:51;9.00;;;1.27;;
22476;SDS011;11405;51.698;-0.292;2022-09-06T13:43:56;6.45;;;1.00;;
22476;SDS011;11405;51.698;-0.292;2022-09-06T13:46:22;5.32;;;0.80;;
22476;SDS011;11405;51.698;-0.292;2022-09-06T13:48:48;8.10;;;0.93;;
22476;SDS011;11405;51.698;-0.292;2022-09-06T13:51:14;6.40;;;1.17;;
22476;SDS011;11405;51.698;-0.292;2022-09-06T13:53:42;7.70;;;0.95;;
22476;SDS011;11405;51.698;-0.292;2022-09-06T13:56:08;6.70;;;1.52;;
22476;SDS011;11405;51.698;-0.292;2022-09-06T13:58:34;9.85;;;1.60;;
22476;SDS011;11405;51.698;-0.292;2022-09-06T14:01:00;6.15;;;1.15;;
22476;SDS011;11405;51.698;-0.292;2022-09-06T14:03:27;5.00;;;1.63;;
22476;SDS011;11405;51.698;-0.292;2022-09-06T14:05:55;9.85;;;1.00;;
22476;SDS011;11405;51.698;-0.292;2022-09-06T14:08:21;6.68;;;1.30;;
22476;SDS011;11405;51.698;-0.292;2022-09-06T14:10:48;5.07;;;1.27;;
22476;SDS011;11405;51.698;-0.292;2022-09-06T14:13:15;9.38;;;1.13;;
22476;SDS011;11405;51.698;-0.292;2022-09-06T14:15:41;6.80;;;1.10;;
22476;SDS011;11405;51.698;-0.292;2022-09-06T14:18:07;12.65;;;1.10;;
22476;SDS011;11405;51.698;-0.292;2022-09-06T14:20:33;5.75;;;0.80;;
22476;SDS011;11405;51.698;-0.292;2022-09-06T14:22:59;3.78;;;0.65;;
22476;SDS011;11405;51.698;-0.292;2022-09-06T14:25:25;5.55;;;1.00;;
22476;SDS011;11405;51.698;-0.292;2022-09-06T14:30:18;4.68;;;0.98;;
22476;SDS011;11405;51.698;-0.292;2022-09-06T14:32:44;4.57;;;1.00;;
22476;SDS011;11405;51.698;-0.292;2022-09-06T14:35:10;10.32;;;1.33;;
22476;SDS011;11405;51.698;-0.292;2022-09-06T14:37:36;5.38;;;1.00;;
22476;SDS011;11405;51.698;-0.292;2022-09-06T14:40:03;3.17;;;0.50;;
22476;SDS011;11405;51.698;-0.292;2022-09-06T14:42:29;4.25;;;1.05;;
22476;SDS011;11405;51.698;-0.292;2022-09-06T14:44:55;10.65;;;0.70;;
22476;SDS011;11405;51.698;-0.292;2022-09-06T14:47:21;2.65;;;0.73;;
22476;SDS011;11405;51.698;-0.292;2022-09-06T14:49:47;9.25;;;2.97;;
22476;SDS011;11405;51.698;-0.292;2022-09-06T14:52:13;5.22;;;1.25;;
22476;SDS011;11405;51.698;-0.292;2022-09-06T14:54:39;5.47;;;1.25;;
22476;SDS011;11405;51.698;-0.292;2022-09-06T14:57:05;3.47;;;0.82;;
22476;SDS011;11405;51.698;-0.292;2022-09-06T14:59:31;2.65;;;0.65;;
22476;SDS011;11405;51.698;-0.292;2022-09-06T15:01:57;5.53;;;1.13;;
22476;SDS011;11405;51.698;-0.292;2022-09-06T15:04:23;3.13;;;1.35;;
22476;SDS011;11405;51.698;-0.292;2022-09-06T15:06:50;3.65;;;0.82;;
22476;SDS011;11405;51.698;-0.292;2022-09-06T15:09:16;6.25;;;0.95;;
22476;SDS011;11405;51.698;-0.292;2022-09-06T15:11:46;7.22;;;0.95;;
22476;SDS011;11405;51.698;-0.292;2022-09-06T15:16:39;4.28;;;1.05;;
22476;SDS011;11405;51.698;-0.292;2022-09-06T15:19:05;4.22;;;0.85;;
22476;SDS011;11405;51.698;-0.292;2022-09-06T15:21:32;7.45;;;1.30;;
22476;SDS011;11405;51.698;-0.292;2022-09-06T15:23:59;2.70;;;0.82;;
22476;SDS011;11405;51.698;-0.292;2022-09-06T15:26:26;5.43;;;0.80;;
22476;SDS011;11405;51.698;-0.292;2022-09-06T15:28:52;9.20;;;1.50;;
22476;SDS011;11405;51.698;-0.292;2022-09-06T15:31:18;5.35;;;0.98;;
22476;SDS011;11405;51.698;-0.292;2022-09-06T15:33:45;3.78;;;0.90;;
22476;SDS011;11405;51.698;-0.292;2022-09-06T15:36:14;6.18;;;1.25;;
22476;SDS011;11405;51.698;-0.292;2022-09-06T15:38:41;3.60;;;1.00;;
22476;SDS011;11405;51.698;-0.292;2022-09-06T15:41:09;8.52;;;1.20;;
22476;SDS011;11405;51.698;-0.292;2022-09-06T15:43:36;6.82;;;0.98;;
22476;SDS011;11405;51.698;-0.292;2022-09-06T15:46:05;6.32;;;1.23;;
22476;SDS011;11405;51.698;-0.292;2022-09-06T15:48:38;3.88;;;0.73;;
22476;SDS011;11405;51.698;-0.292;2022-09-06T15:51:04;7.47;;;1.10;;
22476;SDS011;11405;51.698;-0.292;2022-09-06T15:53:30;8.55;;;1.63;;
22476;SDS011;11405;51.698;-0.292;2022-09-06T15:55:57;4.32;;;1.00;;
22476;SDS011;11405;51.698;-0.292;2022-09-06T15:58:24;5.75;;;1.10;;
22476;SDS011;11405;51.698;-0.292;2022-09-06T16:03:29;6.22;;;1.00;;
22476;SDS011;11405;51.698;-0.292;2022-09-06T16:06:02;7.05;;;1.05;;
22476;SDS011;11405;51.698;-0.292;2022-09-06T16:08:29;6.10;;;0.98;;
22476;SDS011;11405;51.698;-0.292;2022-09-06T16:10:55;6.75;;;0.93;;
22476;SDS011;11405;51.698;-0.292;2022-09-06T16:13:22;5.75;;;1.08;;
22476;SDS011;11405;51.698;-0.292;2022-09-06T16:15:56;7.53;;;1.23;;
22476;SDS011;11405;51.698;-0.292;2022-09-06T16:18:22;6.50;;;1.15;;
22476;SDS011;11405;51.698;-0.292;2022-09-06T16:20:48;7.00;;;2.05;;
22476;SDS011;11405;51.698;-0.292;2022-09-06T16:23:14;5.22;;;1.20;;
22476;SDS011;11405;51.698;-0.292;2022-09-06T16:25:41;8.95;;;1.13;;
22476;SDS011;11405;51.698;-0.292;2022-09-06T16:28:07;5.38;;;1.00;;
22476;SDS011;11405;51.698;-0.292;2022-09-06T16:30:33;2.70;;;0.93;;
22476;SDS011;11405;51.698;-0.292;2022-09-06T16:35:25;4.38;;;0.90;;
22476;SDS011;11405;51.698;-0.292;2022-09-06T16:37:51;4.15;;;1.15;;
22476;SDS011;11405;51.698;-0.292;2022-09-06T16:40:17;6.60;;;1.25;;
22476;SDS011;11405;51.698;-0.292;2022-09-06T16:42:43;3.53;;;0.90;;
22476;SDS011;11405;51.698;-0.292;2022-09-06T16:45:10;3.97;;;1.05;;
22476;SDS011;11405;51.698;-0.292;2022-09-06T16:47:36;6.40;;;0.60;;
22476;SDS011;11405;51.698;-0.292;2022-09-06T16:50:02;5.30;;;1.00;;
22476;SDS011;11405;51.698;-0.292;2022-09-06T16:52:31;2.72;;;0.73;;
22476;SDS011;11405;51.698;-0.292;2022-09-06T16:54:58;5.22;;;0.80;;
22476;SDS011;11405;51.698;-0.292;2022-09-06T16:57:24;5.78;;;0.80;;